Weather Cam  Weather Cam


Weather Cam 2  Weather Cam 2


Thunder radar more information blitzortung!


Rain radar more information rain snow radar


Visit our other weather sites:

Template documentation
and downloads

And another site


You find our weather info also at:

WeatherCloud

Weather Underground

Northwest Weather Network

AWEKAS

Citizen Weather Observer Program (CWOP)



There are no active watches, warnings or advisories

Nearby METAR Reports

   
KCOE - Coeur d'Alene, ID
Updated: Jul 16 2018 11:56 pm
Clear  
Clear  
   Wind: Calm
Wind: Calm
Temperature: 62.6°F
Dew Point: 51.8°F
Humidity: 68%
Barometer: 30 inHg
Clouds: Clear
Visibility: 10 mi
Cloud details: Clear m
KCOE 170656Z AUTO 00000KT 10SM CLR 17/11 A3000 RMK AO2 SLP155 T01720106 PNO $
KGEG - Spokane, WA
Updated: Jul 16 2018 11:53 pm
Partly Cloudy  
Partly Cloudy  
   Wind: SSE 4.6 mph
Wind: SSE 4.6 mph
Temperature: 73.4°F
Dew Point: 44.6°F
Humidity: 36%
Barometer: 29.99 inHg
Clouds: Partly Cloudy
Visibility: 10 mi
Cloud details: Partly Cloudy 7620 m
KGEG 170653Z 16004KT 10SM SCT250 23/07 A2999 RMK AO2 SLP133 T02280072
KSFF - Spokane Felts
Updated: Jul 16 2018 11:53 pm
Clear  
Clear  
   Wind: NE 3.5 mph
Wind: NE 3.5 mph
Temperature: 71.6°F
Dew Point: 44.6°F
Humidity: 38%
Barometer: 29.97 inHg
Clouds: Clear
Visibility: 10 mi
Cloud details: Clear m
KSFF 170653Z AUTO 04003KT 10SM CLR 22/07 A2997 RMK AO2 SLP131 T02170072
KSKA - Fairchild AFB
Updated: Jul 16 2018 11:58 pm
Clear  
Clear  
   Wind: WSW 4.6 mph
Wind: WSW 4.6 mph
Temperature: 66.2°F
Dew Point: 42.8°F
Humidity: 43%
Barometer: 29.99 inHg
Clouds: Clear
Visibility: 10 mi
Cloud details: Clear m
KSKA 170658Z AUTO 25004KT 10SM CLR 19/06 A2999 RMK AO2 SLP140
KSZT - Sandpoint, ID
Updated: Jul 17 2018 12:15 am
Clear  
Clear  
   Wind: Calm
Wind: Calm
Temperature: 57.2°F
Dew Point: 44.6°F
Humidity: 63%
Barometer: 29.99 inHg
Clouds: Clear
Visibility: 10 mi
Cloud details: Clear m
KSZT 170715Z AUTO 00000KT 10SM CLR 14/07 A2999 RMK AO2
KSEA - Sea-Tac, WA
Updated: Jul 16 2018 11:53 pm
Clear  
Clear  
   Wind: NW 5.8 mph
Wind: NW 5.8 mph
Temperature: 73.4°F
Dew Point: 48.2°F
Humidity: 41%
Barometer: 29.99 inHg
Clouds: Clear
Visibility: 10 mi
Cloud details: Clear m
KSEA 170653Z 32005KT 10SM CLR 23/09 A2999 RMK AO2 SLP158 T02280094

Script developed by  Saratoga-weather.org Adapted for the template by  Weerstation Leuven